sensor_id;sensor_type;location;lat;lon;timestamp;P1;durP1;ratioP1;P2;durP2;ratioP2
21727;SDS011;11026;50.560;17.852;2022-08-11T00:00:58;6.68;;;4.43;;
21727;SDS011;11026;50.560;17.852;2022-08-11T00:03:47;6.00;;;4.93;;
21727;SDS011;11026;50.560;17.852;2022-08-11T00:09:04;7.75;;;4.95;;
21727;SDS011;11026;50.560;17.852;2022-08-11T00:11:40;5.50;;;4.82;;
21727;SDS011;11026;50.560;17.852;2022-08-11T00:14:16;7.80;;;5.55;;
21727;SDS011;11026;50.560;17.852;2022-08-11T00:16:53;9.88;;;5.38;;
21727;SDS011;11026;50.560;17.852;2022-08-11T00:19:36;8.38;;;5.03;;
21727;SDS011;11026;50.560;17.852;2022-08-11T00:22:34;6.78;;;5.10;;
21727;SDS011;11026;50.560;17.852;2022-08-11T00:25:15;8.48;;;5.13;;
21727;SDS011;11026;50.560;17.852;2022-08-11T00:27:57;6.88;;;4.90;;
21727;SDS011;11026;50.560;17.852;2022-08-11T00:33:11;7.05;;;4.75;;
21727;SDS011;11026;50.560;17.852;2022-08-11T00:35:39;6.88;;;4.68;;
21727;SDS011;11026;50.560;17.852;2022-08-11T00:38:23;5.95;;;5.18;;
21727;SDS011;11026;50.560;17.852;2022-08-11T00:58:28;6.85;;;4.97;;
21727;SDS011;11026;50.560;17.852;2022-08-11T01:01:09;7.15;;;4.90;;
21727;SDS011;11026;50.560;17.852;2022-08-11T01:31:14;6.68;;;5.22;;
21727;SDS011;11026;50.560;17.852;2022-08-11T01:34:18;7.18;;;5.47;;
21727;SDS011;11026;50.560;17.852;2022-08-11T01:43:00;5.55;;;4.97;;
21727;SDS011;11026;50.560;17.852;2022-08-11T01:49:20;8.15;;;5.72;;
21727;SDS011;11026;50.560;17.852;2022-08-11T01:52:27;7.93;;;5.88;;
21727;SDS011;11026;50.560;17.852;2022-08-11T01:55:14;10.23;;;5.90;;
21727;SDS011;11026;50.560;17.852;2022-08-11T01:58:16;7.82;;;6.07;;
21727;SDS011;11026;50.560;17.852;2022-08-11T02:12:26;9.35;;;6.15;;
21727;SDS011;11026;50.560;17.852;2022-08-11T02:18:36;8.00;;;6.20;;
21727;SDS011;11026;50.560;17.852;2022-08-11T02:22:02;7.65;;;6.13;;
21727;SDS011;11026;50.560;17.852;2022-08-11T02:27:59;8.07;;;5.85;;
21727;SDS011;11026;50.560;17.852;2022-08-11T02:30:37;8.10;;;5.88;;
21727;SDS011;11026;50.560;17.852;2022-08-11T02:33:41;7.28;;;5.82;;
21727;SDS011;11026;50.560;17.852;2022-08-11T02:36:14;6.65;;;5.90;;
21727;SDS011;11026;50.560;17.852;2022-08-11T02:39:07;6.78;;;5.85;;
21727;SDS011;11026;50.560;17.852;2022-08-11T02:45:15;9.55;;;6.45;;
21727;SDS011;11026;50.560;17.852;2022-08-11T02:51:02;8.15;;;6.35;;
21727;SDS011;11026;50.560;17.852;2022-08-11T02:56:57;7.72;;;5.90;;
21727;SDS011;11026;50.560;17.852;2022-08-11T02:59:42;9.45;;;6.70;;
21727;SDS011;11026;50.560;17.852;2022-08-11T03:17:38;8.88;;;6.40;;
21727;SDS011;11026;50.560;17.852;2022-08-11T03:31:00;8.07;;;7.13;;
21727;SDS011;11026;50.560;17.852;2022-08-11T03:33:50;8.85;;;7.40;;
21727;SDS011;11026;50.560;17.852;2022-08-11T03:40:11;8.77;;;6.60;;
21727;SDS011;11026;50.560;17.852;2022-08-11T03:49:06;8.40;;;7.13;;
21727;SDS011;11026;50.560;17.852;2022-08-11T03:54:51;8.10;;;7.18;;
21727;SDS011;11026;50.560;17.852;2022-08-11T03:57:44;7.78;;;6.85;;
21727;SDS011;11026;50.560;17.852;2022-08-11T04:24:18;11.07;;;7.22;;
21727;SDS011;11026;50.560;17.852;2022-08-11T04:30:48;8.85;;;7.05;;
21727;SDS011;11026;50.560;17.852;2022-08-11T04:36:40;9.70;;;8.27;;
21727;SDS011;11026;50.560;17.852;2022-08-11T05:08:40;10.77;;;9.10;;
21727;SDS011;11026;50.560;17.852;2022-08-11T05:17:05;13.48;;;9.35;;
21727;SDS011;11026;50.560;17.852;2022-08-11T05:19:58;13.30;;;9.43;;
21727;SDS011;11026;50.560;17.852;2022-08-11T05:25:38;12.25;;;9.35;;
21727;SDS011;11026;50.560;17.852;2022-08-11T05:28:52;11.98;;;8.75;;
21727;SDS011;11026;50.560;17.852;2022-08-11T05:31:58;13.48;;;9.93;;
21727;SDS011;11026;50.560;17.852;2022-08-11T05:34:51;13.38;;;9.88;;
21727;SDS011;11026;50.560;17.852;2022-08-11T05:37:30;11.57;;;9.85;;
21727;SDS011;11026;50.560;17.852;2022-08-11T05:40:08;15.52;;;9.60;;
21727;SDS011;11026;50.560;17.852;2022-08-11T05:42:58;11.35;;;9.65;;
21727;SDS011;11026;50.560;17.852;2022-08-11T05:46:03;13.73;;;9.95;;
21727;SDS011;11026;50.560;17.852;2022-08-11T05:48:53;11.40;;;10.20;;
21727;SDS011;11026;50.560;17.852;2022-08-11T05:51:46;14.45;;;9.77;;
21727;SDS011;11026;50.560;17.852;2022-08-11T05:54:41;13.30;;;9.73;;
21727;SDS011;11026;50.560;17.852;2022-08-11T05:57:34;13.35;;;9.32;;
21727;SDS011;11026;50.560;17.852;2022-08-11T06:02:53;8.98;;;8.02;;
21727;SDS011;11026;50.560;17.852;2022-08-11T06:05:36;9.55;;;7.93;;
21727;SDS011;11026;50.560;17.852;2022-08-11T06:08:10;8.55;;;7.43;;
21727;SDS011;11026;50.560;17.852;2022-08-11T06:10:43;9.02;;;7.15;;
21727;SDS011;11026;50.560;17.852;2022-08-11T06:15:51;14.77;;;7.78;;
21727;SDS011;11026;50.560;17.852;2022-08-11T06:18:29;9.52;;;7.60;;
21727;SDS011;11026;50.560;17.852;2022-08-11T06:26:54;10.90;;;7.40;;
21727;SDS011;11026;50.560;17.852;2022-08-11T06:29:48;9.13;;;6.65;;
21727;SDS011;11026;50.560;17.852;2022-08-11T06:38:08;8.43;;;6.30;;
21727;SDS011;11026;50.560;17.852;2022-08-11T06:46:50;9.00;;;6.00;;
21727;SDS011;11026;50.560;17.852;2022-08-11T06:49:21;9.73;;;5.93;;
21727;SDS011;11026;50.560;17.852;2022-08-11T06:55:14;8.55;;;6.53;;
21727;SDS011;11026;50.560;17.852;2022-08-11T06:58:34;7.63;;;6.28;;
21727;SDS011;11026;50.560;17.852;2022-08-11T07:14:29;10.95;;;5.85;;
21727;SDS011;11026;50.560;17.852;2022-08-11T07:19:57;8.18;;;5.72;;
21727;SDS011;11026;50.560;17.852;2022-08-11T07:22:48;10.18;;;5.90;;
21727;SDS011;11026;50.560;17.852;2022-08-11T07:25:41;11.18;;;5.30;;
21727;SDS011;11026;50.560;17.852;2022-08-11T07:28:32;7.28;;;4.85;;
21727;SDS011;11026;50.560;17.852;2022-08-11T07:34:09;6.70;;;5.00;;
21727;SDS011;11026;50.560;17.852;2022-08-11T07:36:46;6.82;;;4.70;;
21727;SDS011;11026;50.560;17.852;2022-08-11T07:39:37;5.57;;;4.32;;
21727;SDS011;11026;50.560;17.852;2022-08-11T07:47:42;7.80;;;4.30;;
21727;SDS011;11026;50.560;17.852;2022-08-11T07:50:31;6.28;;;4.20;;
21727;SDS011;11026;50.560;17.852;2022-08-11T07:55:57;9.18;;;3.80;;
21727;SDS011;11026;50.560;17.852;2022-08-11T08:01:26;8.13;;;3.60;;
21727;SDS011;11026;50.560;17.852;2022-08-11T08:04:16;6.95;;;3.30;;
21727;SDS011;11026;50.560;17.852;2022-08-11T08:07:03;8.40;;;3.63;;
21727;SDS011;11026;50.560;17.852;2022-08-11T08:15:53;4.75;;;2.67;;
21727;SDS011;11026;50.560;17.852;2022-08-11T08:18:40;3.70;;;2.90;;
21727;SDS011;11026;50.560;17.852;2022-08-11T08:21:10;4.60;;;3.08;;
21727;SDS011;11026;50.560;17.852;2022-08-11T08:23:44;6.55;;;3.03;;
21727;SDS011;11026;50.560;17.852;2022-08-11T08:32:22;3.85;;;2.40;;
21727;SDS011;11026;50.560;17.852;2022-08-11T08:34:50;3.08;;;2.15;;
21727;SDS011;11026;50.560;17.852;2022-08-11T08:37:22;6.13;;;2.30;;
21727;SDS011;11026;50.560;17.852;2022-08-11T08:40:11;2.30;;;2.03;;
21727;SDS011;11026;50.560;17.852;2022-08-11T08:46:09;2.70;;;1.75;;
21727;SDS011;11026;50.560;17.852;2022-08-11T08:48:39;2.65;;;2.10;;
21727;SDS011;11026;50.560;17.852;2022-08-11T08:51:16;2.95;;;2.30;;
21727;SDS011;11026;50.560;17.852;2022-08-11T08:57:21;3.22;;;2.22;;
21727;SDS011;11026;50.560;17.852;2022-08-11T09:05:09;6.13;;;2.50;;
21727;SDS011;11026;50.560;17.852;2022-08-11T09:07:37;3.83;;;2.03;;
21727;SDS011;11026;50.560;17.852;2022-08-11T09:10:07;2.60;;;2.05;;
21727;SDS011;11026;50.560;17.852;2022-08-11T09:12:38;2.95;;;2.00;;
21727;SDS011;11026;50.560;17.852;2022-08-11T09:15:10;3.13;;;1.90;;
21727;SDS011;11026;50.560;17.852;2022-08-11T09:17:45;2.38;;;1.88;;
21727;SDS011;11026;50.560;17.852;2022-08-11T09:26:37;4.18;;;1.80;;
21727;SDS011;11026;50.560;17.852;2022-08-11T09:40:27;4.43;;;1.80;;
21727;SDS011;11026;50.560;17.852;2022-08-11T09:43:05;1.92;;;1.65;;
21727;SDS011;11026;50.560;17.852;2022-08-11T09:45:56;2.50;;;1.60;;
21727;SDS011;11026;50.560;17.852;2022-08-11T09:48:35;2.63;;;1.73;;
21727;SDS011;11026;50.560;17.852;2022-08-11T09:51:08;3.30;;;1.90;;
21727;SDS011;11026;50.560;17.852;2022-08-11T09:53:42;3.83;;;1.88;;
21727;SDS011;11026;50.560;17.852;2022-08-11T09:56:34;2.03;;;1.70;;
21727;SDS011;11026;50.560;17.852;2022-08-11T10:01:59;4.53;;;2.13;;
21727;SDS011;11026;50.560;17.852;2022-08-11T10:07:43;2.95;;;1.92;;
21727;SDS011;11026;50.560;17.852;2022-08-11T10:16:35;4.90;;;1.65;;
21727;SDS011;11026;50.560;17.852;2022-08-11T10:24:45;2.88;;;1.73;;
21727;SDS011;11026;50.560;17.852;2022-08-11T10:27:42;1.95;;;1.75;;
21727;SDS011;11026;50.560;17.852;2022-08-11T10:30:36;3.58;;;1.92;;
21727;SDS011;11026;50.560;17.852;2022-08-11T10:33:23;2.95;;;1.98;;
21727;SDS011;11026;50.560;17.852;2022-08-11T10:36:40;2.80;;;1.95;;
21727;SDS011;11026;50.560;17.852;2022-08-11T10:39:22;2.88;;;1.77;;
21727;SDS011;11026;50.560;17.852;2022-08-11T10:41:59;2.55;;;1.90;;
21727;SDS011;11026;50.560;17.852;2022-08-11T10:45:19;4.35;;;1.80;;
21727;SDS011;11026;50.560;17.852;2022-08-11T10:48:06;2.60;;;1.80;;
21727;SDS011;11026;50.560;17.852;2022-08-11T10:56:46;1.70;;;1.58;;
21727;SDS011;11026;50.560;17.852;2022-08-11T10:59:43;2.45;;;1.50;;
21727;SDS011;11026;50.560;17.852;2022-08-11T11:02:15;2.25;;;1.80;;
21727;SDS011;11026;50.560;17.852;2022-08-11T11:16:31;2.92;;;1.60;;
21727;SDS011;11026;50.560;17.852;2022-08-11T11:21:55;2.25;;;1.38;;
21727;SDS011;11026;50.560;17.852;2022-08-11T11:37:25;1.73;;;1.45;;
21727;SDS011;11026;50.560;17.852;2022-08-11T11:40:10;3.38;;;1.27;;
21727;SDS011;11026;50.560;17.852;2022-08-11T11:42:48;1.90;;;1.17;;
21727;SDS011;11026;50.560;17.852;2022-08-11T11:45:20;4.13;;;2.13;;
21727;SDS011;11026;50.560;17.852;2022-08-11T11:47:58;4.43;;;1.50;;
21727;SDS011;11026;50.560;17.852;2022-08-11T11:50:28;4.28;;;1.50;;
21727;SDS011;11026;50.560;17.852;2022-08-11T11:52:59;4.63;;;1.30;;
21727;SDS011;11026;50.560;17.852;2022-08-11T11:55:34;1.20;;;1.10;;
21727;SDS011;11026;50.560;17.852;2022-08-11T11:58:07;5.43;;;1.30;;
21727;SDS011;11026;50.560;17.852;2022-08-11T12:00:59;2.13;;;1.20;;
21727;SDS011;11026;50.560;17.852;2022-08-11T12:03:56;1.42;;;1.33;;
21727;SDS011;11026;50.560;17.852;2022-08-11T12:06:25;3.50;;;1.30;;
21727;SDS011;11026;50.560;17.852;2022-08-11T12:15:02;5.10;;;1.52;;
21727;SDS011;11026;50.560;17.852;2022-08-11T12:17:30;3.95;;;1.50;;
21727;SDS011;11026;50.560;17.852;2022-08-11T12:20:05;3.83;;;1.23;;
21727;SDS011;11026;50.560;17.852;2022-08-11T12:22:54;2.95;;;1.20;;
21727;SDS011;11026;50.560;17.852;2022-08-11T12:25:47;2.30;;;1.25;;
21727;SDS011;11026;50.560;17.852;2022-08-11T12:31:33;1.90;;;1.40;;
21727;SDS011;11026;50.560;17.852;2022-08-11T12:34:19;2.75;;;1.30;;
21727;SDS011;11026;50.560;17.852;2022-08-11T12:39:27;2.80;;;1.23;;
21727;SDS011;11026;50.560;17.852;2022-08-11T12:45:45;1.20;;;1.00;;
21727;SDS011;11026;50.560;17.852;2022-08-11T12:54:57;1.48;;;1.23;;
21727;SDS011;11026;50.560;17.852;2022-08-11T12:57:38;3.47;;;1.17;;
21727;SDS011;11026;50.560;17.852;2022-08-11T13:00:45;2.60;;;1.00;;
21727;SDS011;11026;50.560;17.852;2022-08-11T13:03:37;3.72;;;1.23;;
21727;SDS011;11026;50.560;17.852;2022-08-11T13:06:36;1.40;;;1.00;;
21727;SDS011;11026;50.560;17.852;2022-08-11T13:09:05;2.97;;;1.10;;
21727;SDS011;11026;50.560;17.852;2022-08-11T13:11:35;1.33;;;1.00;;
21727;SDS011;11026;50.560;17.852;2022-08-11T13:14:26;1.83;;;1.00;;
21727;SDS011;11026;50.560;17.852;2022-08-11T13:20:15;2.90;;;1.20;;
21727;SDS011;11026;50.560;17.852;2022-08-11T13:22:50;1.85;;;0.90;;
21727;SDS011;11026;50.560;17.852;2022-08-11T13:25:24;3.97;;;1.15;;
21727;SDS011;11026;50.560;17.852;2022-08-11T13:27:54;2.20;;;1.10;;
21727;SDS011;11026;50.560;17.852;2022-08-11T13:30:30;3.05;;;1.08;;
21727;SDS011;11026;50.560;17.852;2022-08-11T13:33:17;2.05;;;1.00;;
21727;SDS011;11026;50.560;17.852;2022-08-11T13:35:46;3.53;;;1.33;;
21727;SDS011;11026;50.560;17.852;2022-08-11T13:38:24;1.83;;;1.27;;
21727;SDS011;11026;50.560;17.852;2022-08-11T13:40:58;2.10;;;1.50;;
21727;SDS011;11026;50.560;17.852;2022-08-11T13:43:32;3.20;;;1.20;;
21727;SDS011;11026;50.560;17.852;2022-08-11T13:46:00;4.80;;;1.50;;
21727;SDS011;11026;50.560;17.852;2022-08-11T13:48:55;3.95;;;1.90;;
21727;SDS011;11026;50.560;17.852;2022-08-11T13:51:31;2.90;;;1.40;;
21727;SDS011;11026;50.560;17.852;2022-08-11T13:54:15;4.05;;;1.50;;
21727;SDS011;11026;50.560;17.852;2022-08-11T13:56:55;2.38;;;1.50;;
21727;SDS011;11026;50.560;17.852;2022-08-11T13:59:25;2.85;;;1.70;;
21727;SDS011;11026;50.560;17.852;2022-08-11T14:08:08;3.20;;;1.40;;
21727;SDS011;11026;50.560;17.852;2022-08-11T14:11:05;1.30;;;1.20;;
21727;SDS011;11026;50.560;17.852;2022-08-11T14:14:24;4.47;;;1.80;;
21727;SDS011;11026;50.560;17.852;2022-08-11T14:16:55;2.75;;;1.20;;
21727;SDS011;11026;50.560;17.852;2022-08-11T14:19:29;3.08;;;1.10;;
21727;SDS011;11026;50.560;17.852;2022-08-11T14:22:03;3.65;;;1.20;;
21727;SDS011;11026;50.560;17.852;2022-08-11T14:24:36;3.38;;;1.20;;
21727;SDS011;11026;50.560;17.852;2022-08-11T14:27:15;1.38;;;1.20;;
21727;SDS011;11026;50.560;17.852;2022-08-11T14:33:18;2.05;;;1.35;;
21727;SDS011;11026;50.560;17.852;2022-08-11T14:35:46;4.95;;;1.40;;
21727;SDS011;11026;50.560;17.852;2022-08-11T14:38:16;4.70;;;1.40;;
21727;SDS011;11026;50.560;17.852;2022-08-11T14:40:45;2.55;;;1.25;;
21727;SDS011;11026;50.560;17.852;2022-08-11T14:46:58;8.55;;;3.08;;
21727;SDS011;11026;50.560;17.852;2022-08-11T14:49:50;1.83;;;1.50;;
21727;SDS011;11026;50.560;17.852;2022-08-11T14:52:47;4.85;;;1.88;;
21727;SDS011;11026;50.560;17.852;2022-08-11T15:00:44;3.38;;;1.13;;
21727;SDS011;11026;50.560;17.852;2022-08-11T15:03:16;2.00;;;1.48;;
21727;SDS011;11026;50.560;17.852;2022-08-11T15:08:29;4.78;;;2.70;;
21727;SDS011;11026;50.560;17.852;2022-08-11T15:11:30;4.60;;;2.65;;
21727;SDS011;11026;50.560;17.852;2022-08-11T15:14:19;3.15;;;1.73;;
21727;SDS011;11026;50.560;17.852;2022-08-11T15:17:07;4.15;;;1.48;;
21727;SDS011;11026;50.560;17.852;2022-08-11T15:19:38;2.90;;;1.30;;
21727;SDS011;11026;50.560;17.852;2022-08-11T15:22:28;5.95;;;1.40;;
21727;SDS011;11026;50.560;17.852;2022-08-11T15:25:15;5.18;;;1.27;;
21727;SDS011;11026;50.560;17.852;2022-08-11T15:30:39;2.58;;;1.10;;
21727;SDS011;11026;50.560;17.852;2022-08-11T15:33:26;3.83;;;1.10;;
21727;SDS011;11026;50.560;17.852;2022-08-11T15:36:14;5.47;;;1.23;;
21727;SDS011;11026;50.560;17.852;2022-08-11T15:39:01;4.10;;;1.42;;
21727;SDS011;11026;50.560;17.852;2022-08-11T15:44:59;15.57;;;1.48;;
21727;SDS011;11026;50.560;17.852;2022-08-11T15:50:32;8.50;;;1.80;;
21727;SDS011;11026;50.560;17.852;2022-08-11T15:58:41;4.55;;;1.40;;
21727;SDS011;11026;50.560;17.852;2022-08-11T16:01:50;5.95;;;1.50;;
21727;SDS011;11026;50.560;17.852;2022-08-11T16:04:48;5.05;;;1.48;;
21727;SDS011;11026;50.560;17.852;2022-08-11T16:10:08;4.97;;;1.40;;
21727;SDS011;11026;50.560;17.852;2022-08-11T16:15:38;3.38;;;1.42;;
21727;SDS011;11026;50.560;17.852;2022-08-11T16:18:32;6.20;;;1.80;;
21727;SDS011;11026;50.560;17.852;2022-08-11T16:21:11;7.65;;;1.98;;
21727;SDS011;11026;50.560;17.852;2022-08-11T16:27:09;3.08;;;1.63;;
21727;SDS011;11026;50.560;17.852;2022-08-11T16:29:41;3.88;;;1.70;;
21727;SDS011;11026;50.560;17.852;2022-08-11T16:32:21;5.63;;;1.67;;
21727;SDS011;11026;50.560;17.852;2022-08-11T16:35:00;4.88;;;2.00;;
21727;SDS011;11026;50.560;17.852;2022-08-11T16:37:59;5.40;;;2.20;;
21727;SDS011;11026;50.560;17.852;2022-08-11T16:40:55;4.80;;;2.00;;
21727;SDS011;11026;50.560;17.852;2022-08-11T16:43:26;2.97;;;1.42;;
21727;SDS011;11026;50.560;17.852;2022-08-11T16:46:16;3.33;;;1.45;;
21727;SDS011;11026;50.560;17.852;2022-08-11T16:51:24;2.45;;;1.27;;
21727;SDS011;11026;50.560;17.852;2022-08-11T16:56:42;3.38;;;2.05;;
21727;SDS011;11026;50.560;17.852;2022-08-11T16:59:39;3.33;;;1.90;;
21727;SDS011;11026;50.560;17.852;2022-08-11T17:02:14;3.33;;;2.00;;
21727;SDS011;11026;50.560;17.852;2022-08-11T17:11:25;2.78;;;1.90;;
21727;SDS011;11026;50.560;17.852;2022-08-11T17:17:20;2.85;;;2.10;;
21727;SDS011;11026;50.560;17.852;2022-08-11T17:20:04;3.78;;;2.03;;
21727;SDS011;11026;50.560;17.852;2022-08-11T17:22:55;2.80;;;2.15;;
21727;SDS011;11026;50.560;17.852;2022-08-11T17:25:57;2.63;;;1.85;;
21727;SDS011;11026;50.560;17.852;2022-08-11T17:28:30;3.60;;;2.13;;
21727;SDS011;11026;50.560;17.852;2022-08-11T17:30:59;3.53;;;1.90;;
21727;SDS011;11026;50.560;17.852;2022-08-11T17:36:39;3.00;;;2.10;;
21727;SDS011;11026;50.560;17.852;2022-08-11T17:39:11;2.28;;;1.90;;
21727;SDS011;11026;50.560;17.852;2022-08-11T17:41:40;4.75;;;2.05;;
21727;SDS011;11026;50.560;17.852;2022-08-11T17:44:33;5.22;;;2.47;;
21727;SDS011;11026;50.560;17.852;2022-08-11T17:50:14;4.50;;;2.50;;
21727;SDS011;11026;50.560;17.852;2022-08-11T17:52:49;3.80;;;2.20;;
21727;SDS011;11026;50.560;17.852;2022-08-11T17:55:49;3.42;;;2.10;;
21727;SDS011;11026;50.560;17.852;2022-08-11T17:58:38;4.00;;;2.20;;
21727;SDS011;11026;50.560;17.852;2022-08-11T18:01:37;7.30;;;2.70;;
21727;SDS011;11026;50.560;17.852;2022-08-11T18:10:08;6.28;;;3.33;;
21727;SDS011;11026;50.560;17.852;2022-08-11T18:12:56;4.72;;;2.83;;
21727;SDS011;11026;50.560;17.852;2022-08-11T18:15:46;3.05;;;2.60;;
21727;SDS011;11026;50.560;17.852;2022-08-11T18:18:31;4.57;;;2.53;;
21727;SDS011;11026;50.560;17.852;2022-08-11T18:24:47;5.07;;;2.78;;
21727;SDS011;11026;50.560;17.852;2022-08-11T18:27:39;5.32;;;2.70;;
21727;SDS011;11026;50.560;17.852;2022-08-11T18:33:42;4.03;;;2.60;;
21727;SDS011;11026;50.560;17.852;2022-08-11T18:36:48;6.57;;;2.90;;
21727;SDS011;11026;50.560;17.852;2022-08-11T18:39:51;6.57;;;3.20;;
21727;SDS011;11026;50.560;17.852;2022-08-11T18:42:42;4.22;;;2.92;;
21727;SDS011;11026;50.560;17.852;2022-08-11T18:45:30;5.00;;;3.33;;
21727;SDS011;11026;50.560;17.852;2022-08-11T18:48:31;4.32;;;2.90;;
21727;SDS011;11026;50.560;17.852;2022-08-11T18:51:21;3.60;;;2.55;;
21727;SDS011;11026;50.560;17.852;2022-08-11T18:54:09;4.03;;;2.80;;
21727;SDS011;11026;50.560;17.852;2022-08-11T18:56:59;5.05;;;3.00;;
21727;SDS011;11026;50.560;17.852;2022-08-11T18:59:47;4.05;;;2.83;;
21727;SDS011;11026;50.560;17.852;2022-08-11T19:02:37;5.60;;;3.15;;
21727;SDS011;11026;50.560;17.852;2022-08-11T19:05:26;5.22;;;3.50;;
21727;SDS011;11026;50.560;17.852;2022-08-11T19:08:45;7.35;;;3.80;;
21727;SDS011;11026;50.560;17.852;2022-08-11T19:11:33;6.35;;;3.60;;
21727;SDS011;11026;50.560;17.852;2022-08-11T19:17:23;5.07;;;3.58;;
21727;SDS011;11026;50.560;17.852;2022-08-11T19:20:24;5.35;;;3.80;;
21727;SDS011;11026;50.560;17.852;2022-08-11T19:23:31;4.28;;;3.83;;
21727;SDS011;11026;50.560;17.852;2022-08-11T19:26:27;4.68;;;4.18;;
21727;SDS011;11026;50.560;17.852;2022-08-11T19:29:21;5.82;;;4.47;;
21727;SDS011;11026;50.560;17.852;2022-08-11T19:32:30;5.72;;;4.40;;
21727;SDS011;11026;50.560;17.852;2022-08-11T19:35:18;5.97;;;4.45;;
21727;SDS011;11026;50.560;17.852;2022-08-11T19:38:06;5.53;;;4.45;;
21727;SDS011;11026;50.560;17.852;2022-08-11T19:40:53;6.22;;;4.05;;
21727;SDS011;11026;50.560;17.852;2022-08-11T19:43:54;10.75;;;5.57;;
21727;SDS011;11026;50.560;17.852;2022-08-11T19:46:51;5.22;;;4.22;;
21727;SDS011;11026;50.560;17.852;2022-08-11T19:49:38;5.43;;;3.50;;
21727;SDS011;11026;50.560;17.852;2022-08-11T19:52:37;8.77;;;4.93;;
21727;SDS011;11026;50.560;17.852;2022-08-11T19:55:25;5.57;;;4.30;;
21727;SDS011;11026;50.560;17.852;2022-08-11T19:58:14;5.22;;;4.30;;
21727;SDS011;11026;50.560;17.852;2022-08-11T20:01:00;4.72;;;4.25;;
21727;SDS011;11026;50.560;17.852;2022-08-11T20:03:48;7.03;;;4.63;;
21727;SDS011;11026;50.560;17.852;2022-08-11T20:06:35;5.65;;;4.40;;
21727;SDS011;11026;50.560;17.852;2022-08-11T20:09:30;5.53;;;4.30;;
21727;SDS011;11026;50.560;17.852;2022-08-11T20:12:31;5.55;;;4.30;;
21727;SDS011;11026;50.560;17.852;2022-08-11T20:21:42;9.75;;;5.85;;
21727;SDS011;11026;50.560;17.852;2022-08-11T20:24:35;13.63;;;8.32;;
21727;SDS011;11026;50.560;17.852;2022-08-11T20:30:22;7.05;;;5.85;;
21727;SDS011;11026;50.560;17.852;2022-08-11T20:33:16;6.35;;;5.53;;
21727;SDS011;11026;50.560;17.852;2022-08-11T20:36:03;8.00;;;4.72;;
21727;SDS011;11026;50.560;17.852;2022-08-11T20:38:54;5.57;;;5.03;;
21727;SDS011;11026;50.560;17.852;2022-08-11T20:41:42;6.45;;;5.10;;
21727;SDS011;11026;50.560;17.852;2022-08-11T20:44:30;6.35;;;4.68;;
21727;SDS011;11026;50.560;17.852;2022-08-11T20:47:20;6.57;;;5.18;;
21727;SDS011;11026;50.560;17.852;2022-08-11T20:53:23;5.68;;;5.10;;
21727;SDS011;11026;50.560;17.852;2022-08-11T20:56:11;7.25;;;6.00;;
21727;SDS011;11026;50.560;17.852;2022-08-11T20:59:01;7.35;;;5.43;;
21727;SDS011;11026;50.560;17.852;2022-08-11T21:01:49;5.70;;;5.13;;
21727;SDS011;11026;50.560;17.852;2022-08-11T21:04:38;7.68;;;5.10;;
21727;SDS011;11026;50.560;17.852;2022-08-11T21:07:36;5.35;;;4.65;;
21727;SDS011;11026;50.560;17.852;2022-08-11T21:10:31;9.65;;;5.53;;
21727;SDS011;11026;50.560;17.852;2022-08-11T21:13:23;6.13;;;5.22;;
21727;SDS011;11026;50.560;17.852;2022-08-11T21:16:19;5.43;;;4.93;;
21727;SDS011;11026;50.560;17.852;2022-08-11T21:19:19;6.55;;;4.72;;
21727;SDS011;11026;50.560;17.852;2022-08-11T21:22:29;7.85;;;7.13;;
21727;SDS011;11026;50.560;17.852;2022-08-11T21:25:34;8.10;;;5.28;;
21727;SDS011;11026;50.560;17.852;2022-08-11T21:28:40;5.33;;;4.40;;
21727;SDS011;11026;50.560;17.852;2022-08-11T21:31:27;5.47;;;4.93;;
21727;SDS011;11026;50.560;17.852;2022-08-11T21:34:23;5.65;;;5.07;;
21727;SDS011;11026;50.560;17.852;2022-08-11T21:37:10;5.60;;;4.90;;
21727;SDS011;11026;50.560;17.852;2022-08-11T21:40:00;6.30;;;4.75;;
21727;SDS011;11026;50.560;17.852;2022-08-11T21:42:48;5.28;;;4.78;;
21727;SDS011;11026;50.560;17.852;2022-08-11T21:45:40;6.90;;;5.57;;
21727;SDS011;11026;50.560;17.852;2022-08-11T21:48:28;10.40;;;5.75;;
21727;SDS011;11026;50.560;17.852;2022-08-11T21:51:17;4.85;;;4.35;;
21727;SDS011;11026;50.560;17.852;2022-08-11T21:54:11;4.82;;;4.40;;
21727;SDS011;11026;50.560;17.852;2022-08-11T21:57:05;6.15;;;4.50;;
21727;SDS011;11026;50.560;17.852;2022-08-11T21:59:52;5.28;;;4.80;;
21727;SDS011;11026;50.560;17.852;2022-08-11T22:02:43;4.63;;;4.22;;
21727;SDS011;11026;50.560;17.852;2022-08-11T22:05:31;8.45;;;4.38;;
21727;SDS011;11026;50.560;17.852;2022-08-11T22:08:20;4.70;;;4.30;;
21727;SDS011;11026;50.560;17.852;2022-08-11T22:11:07;6.97;;;4.80;;
21727;SDS011;11026;50.560;17.852;2022-08-11T22:16:55;6.93;;;4.95;;
21727;SDS011;11026;50.560;17.852;2022-08-11T22:19:42;6.47;;;4.80;;
21727;SDS011;11026;50.560;17.852;2022-08-11T22:22:30;6.20;;;4.25;;
21727;SDS011;11026;50.560;17.852;2022-08-11T22:25:23;4.80;;;4.30;;
21727;SDS011;11026;50.560;17.852;2022-08-11T22:28:21;4.75;;;4.35;;
21727;SDS011;11026;50.560;17.852;2022-08-11T22:31:13;4.93;;;4.22;;
21727;SDS011;11026;50.560;17.852;2022-08-11T22:33:58;5.68;;;4.57;;
21727;SDS011;11026;50.560;17.852;2022-08-11T22:36:45;4.40;;;4.00;;
21727;SDS011;11026;50.560;17.852;2022-08-11T22:39:33;6.20;;;4.10;;
21727;SDS011;11026;50.560;17.852;2022-08-11T22:42:30;4.63;;;3.78;;
21727;SDS011;11026;50.560;17.852;2022-08-11T22:45:22;5.97;;;4.00;;
21727;SDS011;11026;50.560;17.852;2022-08-11T22:48:09;3.95;;;3.53;;
21727;SDS011;11026;50.560;17.852;2022-08-11T22:50:56;5.63;;;4.03;;
21727;SDS011;11026;50.560;17.852;2022-08-11T22:53:58;4.78;;;4.28;;
21727;SDS011;11026;50.560;17.852;2022-08-11T22:56:54;14.15;;;5.82;;
21727;SDS011;11026;50.560;17.852;2022-08-11T22:59:41;58.10;;;7.35;;
21727;SDS011;11026;50.560;17.852;2022-08-11T23:02:27;9.73;;;5.32;;
21727;SDS011;11026;50.560;17.852;2022-08-11T23:05:15;34.20;;;5.38;;
21727;SDS011;11026;50.560;17.852;2022-08-11T23:08:08;8.43;;;5.80;;
21727;SDS011;11026;50.560;17.852;2022-08-11T23:10:55;8.27;;;6.45;;
21727;SDS011;11026;50.560;17.852;2022-08-11T23:16:44;7.95;;;6.80;;
21727;SDS011;11026;50.560;17.852;2022-08-11T23:19:32;8.02;;;7.10;;
21727;SDS011;11026;50.560;17.852;2022-08-11T23:22:37;8.35;;;5.72;;
21727;SDS011;11026;50.560;17.852;2022-08-11T23:25:25;6.95;;;5.53;;
21727;SDS011;11026;50.560;17.852;2022-08-11T23:28:13;9.07;;;5.22;;
21727;SDS011;11026;50.560;17.852;2022-08-11T23:30:59;6.93;;;5.15;;
21727;SDS011;11026;50.560;17.852;2022-08-11T23:33:49;6.32;;;5.20;;
21727;SDS011;11026;50.560;17.852;2022-08-11T23:37:00;8.93;;;5.65;;
21727;SDS011;11026;50.560;17.852;2022-08-11T23:39:47;5.78;;;5.28;;
21727;SDS011;11026;50.560;17.852;2022-08-11T23:42:36;6.40;;;5.80;;
21727;SDS011;11026;50.560;17.852;2022-08-11T23:45:25;7.40;;;5.38;;
21727;SDS011;11026;50.560;17.852;2022-08-11T23:48:15;6.68;;;5.85;;
21727;SDS011;11026;50.560;17.852;2022-08-11T23:51:09;7.20;;;5.43;;
21727;SDS011;11026;50.560;17.852;2022-08-11T23:57:20;7.45;;;5.70;;
